Time;durP1;ratioP1;P1;durP2;ratioP2;P2;SDS_P1;SDS_P2;PMS_P1;PMS_P2;Temp;Humidity;BMP_temperature;BMP_pressure;BME280_temperature;BME280_humidity;BME280_pressure;Samples;Min_cycle;Max_cycle;Signal;HPM_P1;HPM_P2
2021/03/11 00:00:53;;;;;;;13.93;6.57;;;8.40;99.90;;;;;;5014865;28;20030;-65
2021/03/11 00:03:22;;;;;;;13.30;5.60;;;8.30;99.90;;;;;;5014688;28;20455;-65
2021/03/11 00:05:48;;;;;;;15.70;6.85;;;8.40;99.90;;;;;;5014774;28;20464;-65
2021/03/11 00:08:14;;;;;;;13.93;6.68;;;8.40;99.90;;;;;;5014639;28;20041;-65
2021/03/11 00:10:40;;;;;;;12.10;6.53;;;8.40;99.90;;;;;;5014542;28;20123;-65
2021/03/11 00:13:07;;;;;;;13.55;5.63;;;8.40;99.90;;;;;;5014475;28;20038;-65
2021/03/11 00:15:36;;;;;;;17.30;7.43;;;8.30;99.90;;;;;;5014496;28;20395;-66
2021/03/11 00:18:07;;;;;;;14.20;7.43;;;8.30;99.90;;;;;;5014142;28;20037;-66
2021/03/11 00:20:34;;;;;;;14.25;7.05;;;8.10;99.90;;;;;;5014340;28;20037;-66
2021/03/11 00:23:00;;;;;;;14.13;6.80;;;8.00;99.90;;;;;;5014561;28;20034;-66
2021/03/11 00:25:31;;;;;;;12.73;6.40;;;7.90;99.90;;;;;;5014298;28;20092;-66
2021/03/11 00:27:57;;;;;;;14.20;6.13;;;7.80;99.90;;;;;;5014100;28;20026;-65
2021/03/11 00:30:24;;;;;;;11.32;5.82;;;7.80;99.90;;;;;;5013858;28;20495;-65
2021/03/11 00:32:51;;;;;;;12.45;6.03;;;7.80;99.90;;;;;;4996280;28;20054;-66
2021/03/11 00:35:17;;;;;;;12.18;5.38;;;7.80;99.90;;;;;;5013875;28;20036;-66
2021/03/11 00:37:44;;;;;;;13.57;6.97;;;7.80;99.90;;;;;;5012801;28;20041;-65
2021/03/11 00:40:13;;;;;;;13.55;6.07;;;7.80;99.90;;;;;;5013932;28;20022;-67
2021/03/11 00:42:39;;;;;;;12.40;5.95;;;7.70;99.90;;;;;;5012803;28;20505;-66
2021/03/11 00:45:07;;;;;;;15.15;6.97;;;7.60;99.90;;;;;;5013853;28;20041;-65
2021/03/11 00:47:33;;;;;;;14.85;7.10;;;7.50;99.90;;;;;;5013924;28;20029;-65
2021/03/11 00:49:59;;;;;;;12.80;7.40;;;7.40;99.90;;;;;;5013956;28;20371;-66
2021/03/11 00:52:25;;;;;;;14.30;7.25;;;7.30;99.90;;;;;;5013450;28;20041;-66
2021/03/11 00:54:51;;;;;;;16.00;7.22;;;7.30;99.90;;;;;;5013904;28;20026;-66
2021/03/11 00:57:16;;;;;;;14.88;7.40;;;7.20;99.90;;;;;;5012278;28;20073;-65
2021/03/11 00:59:42;;;;;;;13.25;7.15;;;7.20;99.90;;;;;;5013829;28;20083;-65
2021/03/11 01:02:08;;;;;;;13.80;7.30;;;7.20;99.90;;;;;;5013575;28;20550;-65
2021/03/11 01:04:34;;;;;;;13.07;6.85;;;7.10;99.90;;;;;;5013632;28;20034;-65
2021/03/11 01:07:00;;;;;;;12.88;6.95;;;7.10;99.90;;;;;;5013629;28;20026;-64
2021/03/11 01:09:25;;;;;;;13.63;7.53;;;7.20;99.90;;;;;;5013227;28;20487;-66
2021/03/11 01:11:51;;;;;;;12.35;6.70;;;7.20;99.90;;;;;;5013403;28;20026;-65
2021/03/11 01:14:17;;;;;;;17.40;7.00;;;7.20;99.90;;;;;;5013058;28;20030;-66
2021/03/11 01:16:51;;;;;;;14.05;7.20;;;7.20;99.90;;;;;;5013094;28;20394;-65
2021/03/11 01:19:18;;;;;;;12.35;6.57;;;7.20;99.90;;;;;;5013379;28;20030;-66
2021/03/11 01:21:44;;;;;;;13.02;6.80;;;7.20;99.90;;;;;;5012968;28;20116;-65
2021/03/11 01:24:09;;;;;;;17.58;7.75;;;7.10;99.90;;;;;;5012946;28;20444;-66
2021/03/11 01:26:35;;;;;;;14.63;7.60;;;7.20;99.90;;;;;;5012999;28;20117;-65
2021/03/11 01:29:01;;;;;;;16.35;7.95;;;7.20;99.90;;;;;;5011140;28;20072;-66
2021/03/11 01:31:30;;;;;;;14.32;7.70;;;7.20;99.90;;;;;;5012772;28;20050;-66
2021/03/11 01:33:56;;;;;;;14.27;7.13;;;7.20;99.90;;;;;;5013040;28;20061;-65
2021/03/11 01:36:22;;;;;;;15.70;7.10;;;7.10;99.90;;;;;;5013114;28;20037;-66
2021/03/11 01:38:48;;;;;;;16.92;6.75;;;7.20;99.90;;;;;;5013056;28;20030;-65
2021/03/11 01:41:14;;;;;;;15.30;7.47;;;7.20;99.90;;;;;;5012960;28;20033;-66
2021/03/11 01:43:40;;;;;;;16.45;6.88;;;7.20;99.90;;;;;;5012957;28;20026;-66
2021/03/11 01:46:06;;;;;;;13.98;7.07;;;7.30;99.90;;;;;;5012935;28;20046;-66
2021/03/11 01:48:32;;;;;;;12.77;7.07;;;7.30;99.90;;;;;;5012824;28;20022;-65
2021/03/11 01:50:58;;;;;;;11.55;6.32;;;7.40;99.90;;;;;;5012648;28;20083;-66
2021/03/11 01:53:24;;;;;;;20.58;7.10;;;7.40;99.90;;;;;;5011161;28;20072;-65
2021/03/11 01:55:50;;;;;;;13.68;7.03;;;7.40;99.90;;;;;;5011709;28;20497;-65
2021/03/11 01:58:16;;;;;;;11.93;6.00;;;7.40;99.90;;;;;;5011328;28;20582;-66
2021/03/11 02:00:42;;;;;;;12.52;6.15;;;7.40;99.90;;;;;;5011702;28;20378;-67
2021/03/11 02:03:08;;;;;;;13.95;6.53;;;7.40;99.90;;;;;;5011235;28;20037;-65
2021/03/11 02:05:34;;;;;;;13.18;6.45;;;7.30;99.90;;;;;;5011500;28;20396;-65
2021/03/11 02:08:00;;;;;;;12.73;6.03;;;7.40;99.90;;;;;;5012795;28;20034;-67
2021/03/11 02:10:27;;;;;;;10.90;6.05;;;7.30;99.90;;;;;;5011297;28;20026;-67
2021/03/11 02:13:05;;;;;;;10.85;6.07;;;7.30;99.90;;;;;;5011449;28;20026;-65
2021/03/11 02:15:39;;;;;;;14.38;6.72;;;7.30;99.90;;;;;;5012259;28;20399;-65
2021/03/11 02:18:33;;;;;;;13.10;5.75;;;7.30;99.90;;;;;;5011180;28;20022;-65
2021/03/11 02:21:10;;;;;;;16.67;7.10;;;7.40;99.90;;;;;;5011688;28;20037;-65
2021/03/11 02:24:27;;;;;;;14.88;6.63;;;7.30;99.90;;;;;;5011379;28;20156;-65
2021/03/11 02:27:36;;;;;;;11.00;5.95;;;7.30;99.90;;;;;;4995034;28;20060;-66
2021/03/11 02:30:04;;;;;;;9.82;5.43;;;7.40;99.90;;;;;;5012301;28;20045;-65
2021/03/11 02:32:32;;;;;;;12.32;5.95;;;7.40;99.90;;;;;;5011878;28;20046;-65
2021/03/11 02:35:01;;;;;;;16.85;6.45;;;7.60;99.90;;;;;;5010906;28;20030;-65
2021/03/11 02:37:40;;;;;;;15.23;6.45;;;7.60;99.90;;;;;;5012122;28;20430;-64
2021/03/11 02:40:34;;;;;;;12.90;5.38;;;7.50;99.90;;;;;;5013196;28;20061;-65
2021/03/11 02:43:03;;;;;;;16.90;5.80;;;7.40;99.90;;;;;;5014616;28;20042;-65
2021/03/11 02:45:33;;;;;;;14.90;6.07;;;7.50;99.90;;;;;;5014704;28;20080;-65
2021/03/11 02:48:06;;;;;;;13.48;5.70;;;7.50;99.90;;;;;;5016171;28;20025;-65
2021/03/11 02:50:34;;;;;;;15.20;5.63;;;7.60;99.90;;;;;;5014859;28;20061;-65
2021/03/11 02:53:04;;;;;;;11.15;5.82;;;7.60;99.90;;;;;;5014892;28;20044;-64
2021/03/11 02:55:32;;;;;;;12.10;5.43;;;7.80;99.90;;;;;;5015050;28;20037;-65
2021/03/11 02:57:59;;;;;;;9.00;4.30;;;7.90;99.90;;;;;;5014654;28;20243;-65
2021/03/11 03:00:27;;;;;;;10.43;5.20;;;8.00;99.90;;;;;;4998498;28;20030;-65
2021/03/11 03:02:54;;;;;;;13.23;4.88;;;8.10;99.90;;;;;;5014839;28;20040;-66
2021/03/11 03:05:25;;;;;;;11.52;4.68;;;8.10;99.90;;;;;;5015214;28;20088;-65
2021/03/11 03:07:52;;;;;;;12.90;5.22;;;8.20;99.90;;;;;;5014780;28;20133;-65
2021/03/11 03:10:23;;;;;;;13.90;5.47;;;8.20;99.90;;;;;;5014389;28;20133;-65
2021/03/11 03:12:56;;;;;;;9.65;4.63;;;8.40;99.90;;;;;;5014635;28;20125;-65
2021/03/11 03:15:23;;;;;;;9.77;4.75;;;8.40;99.90;;;;;;5015302;28;20125;-65
2021/03/11 03:17:51;;;;;;;11.98;4.72;;;8.50;99.90;;;;;;5015355;28;20541;-65
2021/03/11 03:20:19;;;;;;;7.57;4.45;;;8.60;99.90;;;;;;5015167;28;20073;-65
2021/03/11 03:22:46;;;;;;;10.10;4.85;;;8.60;99.90;;;;;;5015478;28;20034;-65
2021/03/11 03:25:14;;;;;;;9.30;4.25;;;8.70;99.90;;;;;;5014345;28;20071;-65
2021/03/11 03:27:41;;;;;;;10.02;5.22;;;8.70;99.90;;;;;;5014289;28;20034;-65
2021/03/11 03:30:19;;;;;;;11.88;4.75;;;8.60;99.90;;;;;;5015314;28;20062;-65
2021/03/11 03:32:46;;;;;;;11.27;4.75;;;8.70;99.90;;;;;;5015003;28;20046;-65
2021/03/11 03:35:14;;;;;;;13.60;5.55;;;8.90;99.90;;;;;;4997800;28;20432;-65
2021/03/11 03:37:41;;;;;;;10.02;4.95;;;9.00;99.90;;;;;;5015208;28;20475;-64
2021/03/11 03:40:11;;;;;;;7.22;4.13;;;9.30;99.90;;;;;;5015181;28;20570;-65
2021/03/11 03:42:43;;;;;;;7.90;3.75;;;9.50;99.90;;;;;;5013619;28;20407;-65
2021/03/11 03:45:20;;;;;;;10.27;5.07;;;9.50;99.90;;;;;;5013898;28;20037;-65
2021/03/11 03:47:49;;;;;;;9.23;4.90;;;9.60;99.90;;;;;;5013828;28;20425;-65
2021/03/11 03:50:17;;;;;;;10.02;4.90;;;9.60;99.90;;;;;;5013756;28;20471;-65
2021/03/11 03:52:44;;;;;;;11.77;5.07;;;9.50;99.90;;;;;;5013304;28;20073;-65
2021/03/11 03:55:11;;;;;;;7.72;4.13;;;9.60;99.90;;;;;;5013644;28;20041;-65
2021/03/11 03:57:44;;;;;;;10.60;4.22;;;9.50;99.90;;;;;;5013411;28;20071;-64
2021/03/11 04:00:12;;;;;;;11.57;6.00;;;9.50;99.90;;;;;;5013875;28;20113;-65
2021/03/11 04:02:39;;;;;;;12.05;5.70;;;9.50;99.90;;;;;;5013535;28;20034;-65
2021/03/11 04:05:08;;;;;;;11.70;5.15;;;9.50;99.90;;;;;;5013671;28;20065;-65
2021/03/11 04:07:34;;;;;;;8.23;3.97;;;9.60;99.90;;;;;;5014625;28;20057;-64
2021/03/11 04:10:07;;;;;;;10.27;5.32;;;9.60;99.90;;;;;;5014668;28;20021;-65
2021/03/11 04:12:35;;;;;;;13.10;5.28;;;9.50;99.90;;;;;;4997414;28;20033;-64
2021/03/11 04:15:03;;;;;;;13.57;5.60;;;9.40;99.90;;;;;;5014270;28;20120;-65
2021/03/11 04:17:30;;;;;;;9.88;5.10;;;9.40;99.90;;;;;;5013191;28;20030;-65
2021/03/11 04:19:59;;;;;;;9.63;4.95;;;9.40;99.90;;;;;;5014533;28;20383;-65
2021/03/11 04:22:25;;;;;;;10.50;5.45;;;9.30;99.90;;;;;;5013950;28;20386;-65
2021/03/11 04:24:51;;;;;;;9.32;4.95;;;9.40;99.90;;;;;;5014389;28;20105;-65
2021/03/11 04:27:17;;;;;;;10.77;4.65;;;9.30;99.90;;;;;;5013318;28;20466;-66
2021/03/11 04:29:44;;;;;;;9.73;4.72;;;9.40;99.90;;;;;;5012942;28;20033;-65
2021/03/11 04:32:10;;;;;;;8.48;4.68;;;9.30;99.90;;;;;;5013818;28;20057;-65
2021/03/11 04:34:36;;;;;;;8.43;4.53;;;9.30;99.90;;;;;;5012976;28;20032;-65
2021/03/11 04:37:03;;;;;;;9.82;4.25;;;9.30;99.90;;;;;;5014060;28;20038;-66
2021/03/11 04:39:30;;;;;;;9.27;4.20;;;9.40;99.90;;;;;;5012870;28;20026;-65
2021/03/11 04:41:57;;;;;;;13.73;5.13;;;9.40;99.90;;;;;;5012583;28;20392;-65
2021/03/11 04:44:25;;;;;;;11.60;5.10;;;9.30;99.90;;;;;;5012537;28;20037;-66
2021/03/11 04:46:52;;;;;;;9.88;5.30;;;9.30;99.90;;;;;;5013799;28;20491;-65
2021/03/11 04:49:19;;;;;;;8.25;4.00;;;9.30;99.90;;;;;;5012112;28;20034;-65
2021/03/11 04:51:46;;;;;;;8.10;3.83;;;9.30;99.90;;;;;;5013573;28;20631;-65
2021/03/11 04:54:13;;;;;;;11.50;5.43;;;9.40;99.90;;;;;;5010739;28;20059;-64
2021/03/11 04:56:42;;;;;;;8.40;4.35;;;9.40;99.90;;;;;;4996126;28;20387;-65
2021/03/11 04:59:10;;;;;;;8.50;4.25;;;9.40;99.90;;;;;;4998483;28;20033;-64
2021/03/11 05:01:41;;;;;;;11.75;4.32;;;9.40;99.90;;;;;;5011639;28;20553;-65
2021/03/11 05:04:09;;;;;;;11.88;4.85;;;9.40;99.90;;;;;;5012135;28;20135;-66
2021/03/11 05:06:35;;;;;;;10.35;4.60;;;9.40;99.90;;;;;;5013104;28;20100;-65
2021/03/11 05:09:01;;;;;;;11.40;4.78;;;9.40;99.90;;;;;;5013553;28;20060;-65
2021/03/11 05:11:27;;;;;;;6.65;3.90;;;9.50;99.90;;;;;;5012059;28;20038;-65
2021/03/11 05:13:52;;;;;;;7.85;3.55;;;9.40;99.90;;;;;;5013397;28;20065;-64
2021/03/11 05:16:18;;;;;;;11.95;4.35;;;9.40;99.90;;;;;;5013413;28;20034;-64
2021/03/11 05:18:44;;;;;;;8.32;3.70;;;9.50;99.90;;;;;;5013185;28;20114;-64
2021/03/11 05:21:10;;;;;;;10.43;3.75;;;9.60;99.90;;;;;;4995851;28;20132;-63
2021/03/11 05:23:36;;;;;;;10.55;4.20;;;9.60;99.90;;;;;;4995683;28;20056;-64
2021/03/11 05:26:02;;;;;;;8.18;4.03;;;9.60;99.90;;;;;;5029893;28;20040;-64
2021/03/11 05:28:28;;;;;;;8.35;4.18;;;9.60;99.90;;;;;;5032923;28;20105;-64
2021/03/11 05:30:53;;;;;;;8.45;3.70;;;9.70;99.90;;;;;;5032355;28;20109;-64
2021/03/11 05:33:19;;;;;;;9.27;4.18;;;9.70;99.90;;;;;;5015401;28;20065;-65
2021/03/11 05:35:45;;;;;;;7.68;3.75;;;9.60;99.90;;;;;;5032430;28;20112;-65
2021/03/11 05:38:11;;;;;;;10.85;4.10;;;9.60;99.90;;;;;;5032819;28;20120;-66
2021/03/11 05:40:37;;;;;;;6.95;3.65;;;9.60;99.90;;;;;;5014959;28;20136;-65
2021/03/11 05:43:06;;;;;;;7.00;3.75;;;9.50;99.90;;;;;;5032370;28;20029;-65
2021/03/11 05:45:33;;;;;;;9.50;4.18;;;9.60;99.90;;;;;;5014673;28;20117;-65
2021/03/11 05:47:59;;;;;;;6.53;3.55;;;9.60;99.90;;;;;;5032667;28;20034;-66
2021/03/11 05:50:26;;;;;;;8.63;3.42;;;9.60;99.90;;;;;;5032388;28;20591;-66
2021/03/11 05:52:55;;;;;;;8.38;3.97;;;9.60;99.90;;;;;;5032519;28;20034;-65
2021/03/11 05:55:23;;;;;;;6.38;3.47;;;9.60;99.90;;;;;;4987105;28;20033;-65
2021/03/11 05:57:48;;;;;;;5.95;3.35;;;9.70;99.90;;;;;;5011417;28;20042;-66
2021/03/11 06:00:20;;;;;;;7.57;3.60;;;9.60;99.90;;;;;;5012839;28;20561;-66
2021/03/11 06:02:52;;;;;;;8.48;3.33;;;9.60;99.90;;;;;;5012587;28;20119;-66
2021/03/11 06:05:20;;;;;;;11.38;3.97;;;9.60;99.90;;;;;;5012807;28;20041;-65
2021/03/11 06:07:48;;;;;;;5.97;3.05;;;9.70;99.90;;;;;;4994740;28;20025;-66
2021/03/11 06:10:20;;;;;;;9.25;2.65;;;9.70;99.90;;;;;;5012527;28;20037;-65
2021/03/11 06:12:47;;;;;;;8.43;3.38;;;9.70;99.90;;;;;;5012236;28;20560;-66
2021/03/11 06:15:35;;;;;;;7.38;2.90;;;9.70;99.90;;;;;;5014501;28;20061;-66
2021/03/11 06:18:09;;;;;;;4.72;2.85;;;9.70;99.90;;;;;;4999277;28;20048;-65
2021/03/11 06:20:35;;;;;;;5.57;2.45;;;9.70;99.90;;;;;;5011080;28;20336;-67
2021/03/11 06:23:02;;;;;;;7.75;2.80;;;9.70;99.90;;;;;;5019062;28;20029;-66
2021/03/11 06:25:28;;;;;;;12.45;3.47;;;9.70;99.90;;;;;;5023600;28;20036;-65
2021/03/11 06:27:54;;;;;;;6.60;2.83;;;9.80;99.90;;;;;;5018970;28;20030;-65
2021/03/11 06:30:33;;;;;;;6.10;3.22;;;9.80;99.90;;;;;;5017886;28;20112;-63
2021/03/11 06:33:01;;;;;;;5.45;2.88;;;9.70;99.90;;;;;;5018356;28;20053;-63
2021/03/11 06:35:28;;;;;;;5.28;2.47;;;9.70;99.90;;;;;;5001441;28;20034;-64
2021/03/11 06:37:54;;;;;;;5.38;2.55;;;9.80;99.90;;;;;;5001170;28;20109;-64
2021/03/11 06:40:27;;;;;;;9.20;2.58;;;9.80;99.90;;;;;;5018646;28;20540;-63
2021/03/11 06:43:11;;;;;;;5.97;2.83;;;9.90;99.90;;;;;;5018709;28;20113;-64
2021/03/11 06:45:38;;;;;;;14.10;3.10;;;9.90;99.90;;;;;;5018854;28;20030;-64
2021/03/11 06:48:25;;;;;;;6.00;2.80;;;9.90;99.90;;;;;;5018406;28;20364;-64
2021/03/11 06:50:54;;;;;;;8.68;3.10;;;9.90;99.90;;;;;;5000902;28;20150;-64
2021/03/11 06:53:20;;;;;;;7.50;3.67;;;10.00;99.90;;;;;;5018140;28;20398;-64
2021/03/11 06:55:46;;;;;;;4.18;2.40;;;10.00;99.90;;;;;;5032954;28;20029;-64
2021/03/11 06:58:25;;;;;;;6.10;2.80;;;10.00;99.90;;;;;;5027673;28;20112;-64
2021/03/11 07:01:06;;;;;;;5.65;2.72;;;10.00;99.90;;;;;;5018361;28;20038;-64
2021/03/11 07:03:43;;;;;;;8.18;2.97;;;10.10;99.90;;;;;;5018474;28;20030;-64
2021/03/11 07:06:10;;;;;;;10.23;2.95;;;10.00;99.90;;;;;;5001115;28;20033;-63
2021/03/11 07:08:51;;;;;;;7.03;2.70;;;10.10;99.90;;;;;;5000865;28;20123;-63
2021/03/11 07:11:17;;;;;;;7.53;2.63;;;10.10;99.90;;;;;;5018706;28;20057;-63
2021/03/11 07:13:44;;;;;;;4.82;2.20;;;10.10;99.90;;;;;;5018315;28;20048;-64
2021/03/11 07:16:22;;;;;;;4.03;2.40;;;10.10;99.90;;;;;;5000742;28;20041;-64
2021/03/11 07:19:16;;;;;;;8.55;3.92;;;10.10;99.90;;;;;;5001414;28;20512;-63
2021/03/11 07:21:48;;;;;;;6.55;2.78;;;10.10;99.90;;;;;;5017260;28;20036;-63
2021/03/11 07:24:37;;;;;;;6.07;2.75;;;10.10;99.90;;;;;;5020614;28;20046;-63
2021/03/11 07:27:06;;;;;;;5.07;2.20;;;10.10;99.90;;;;;;5020096;28;20033;-62
2021/03/11 07:29:32;;;;;;;4.47;2.83;;;10.10;99.90;;;;;;5014876;28;20057;-63
2021/03/11 07:32:03;;;;;;;5.22;2.47;;;10.10;99.90;;;;;;5014733;28;20495;-64
2021/03/11 07:34:35;;;;;;;4.57;2.33;;;10.20;99.90;;;;;;5015395;28;20065;-65
2021/03/11 07:37:02;;;;;;;5.63;2.45;;;10.20;99.90;;;;;;5015176;28;20117;-64
2021/03/11 07:39:42;;;;;;;4.53;2.50;;;10.30;99.90;;;;;;5014057;28;20069;-64
2021/03/11 07:42:10;;;;;;;7.20;2.53;;;10.30;99.90;;;;;;5015056;28;20029;-64
2021/03/11 07:44:39;;;;;;;4.35;2.38;;;10.30;99.90;;;;;;5015178;28;20032;-64
2021/03/11 07:47:07;;;;;;;3.15;1.92;;;10.30;99.90;;;;;;5015190;28;20030;-63
2021/03/11 07:49:33;;;;;;;6.43;2.67;;;10.30;99.90;;;;;;5014896;28;20030;-65
2021/03/11 07:52:04;;;;;;;5.85;2.42;;;10.30;99.90;;;;;;5013747;28;20041;-63
2021/03/11 07:54:34;;;;;;;5.45;2.03;;;10.30;99.90;;;;;;5003027;28;20038;-64
2021/03/11 07:57:00;;;;;;;5.30;3.08;;;10.30;99.90;;;;;;5014784;28;20029;-61
2021/03/11 07:59:26;;;;;;;6.15;3.30;;;10.30;99.90;;;;;;5014837;28;20030;-65
2021/03/11 08:02:00;;;;;;;7.07;2.58;;;10.20;99.90;;;;;;4997184;28;20404;-61
2021/03/11 08:04:31;;;;;;;6.60;2.55;;;10.30;99.90;;;;;;4997718;28;20022;-64
2021/03/11 08:07:23;;;;;;;4.20;2.15;;;10.40;99.90;;;;;;5014118;28;20042;-63
2021/03/11 08:09:55;;;;;;;5.28;2.33;;;10.40;99.90;;;;;;5012710;28;20034;-64
2021/03/11 08:12:39;;;;;;;8.18;2.38;;;10.40;99.90;;;;;;5014692;28;20033;-65
2021/03/11 08:15:28;;;;;;;4.85;1.85;;;10.40;99.90;;;;;;5014700;28;20038;-66
2021/03/11 08:17:54;;;;;;;4.95;2.22;;;10.50;99.90;;;;;;5000204;28;20585;-63
2021/03/11 08:20:20;;;;;;;6.97;2.67;;;10.50;99.90;;;;;;5014210;28;20036;-65
2021/03/11 08:22:57;;;;;;;3.28;1.63;;;10.40;99.90;;;;;;5014155;28;20077;-64
2021/03/11 08:25:32;;;;;;;4.20;2.42;;;10.60;99.90;;;;;;5025903;28;20036;-65
2021/03/11 08:28:19;;;;;;;6.03;2.38;;;10.60;99.90;;;;;;5033790;28;20394;-65
2021/03/11 08:30:48;;;;;;;8.60;2.55;;;10.70;99.90;;;;;;5016159;28;20037;-63
2021/03/11 08:33:34;;;;;;;4.32;2.40;;;10.70;99.90;;;;;;5033993;28;20167;-65
2021/03/11 08:36:02;;;;;;;4.97;2.42;;;10.70;99.90;;;;;;5033480;28;20399;-65
2021/03/11 08:38:30;;;;;;;6.20;2.67;;;10.70;99.90;;;;;;5016128;28;20029;-64
2021/03/11 08:41:05;;;;;;;5.57;2.60;;;10.70;99.90;;;;;;5033653;28;20041;-63
2021/03/11 08:43:40;;;;;;;5.03;2.60;;;10.80;99.90;;;;;;5033711;28;20029;-64
2021/03/11 08:46:12;;;;;;;5.32;2.40;;;10.80;99.90;;;;;;5033678;28;20033;-64
2021/03/11 08:49:02;;;;;;;7.82;2.78;;;10.90;99.90;;;;;;5033582;28;20033;-64
2021/03/11 08:51:30;;;;;;;4.40;2.10;;;10.90;99.90;;;;;;5015679;28;20127;-64
2021/03/11 08:54:00;;;;;;;9.93;3.95;;;10.90;99.90;;;;;;5033513;28;20391;-64
2021/03/11 08:56:26;;;;;;;4.25;1.95;;;10.90;99.90;;;;;;4994262;28;20034;-64
2021/03/11 08:59:04;;;;;;;5.47;2.40;;;10.80;99.90;;;;;;4993939;28;20040;-65
2021/03/11 09:01:42;;;;;;;4.32;2.15;;;10.70;99.90;;;;;;5011352;28;20032;-65
2021/03/11 09:04:20;;;;;;;3.65;1.35;;;10.70;99.90;;;;;;5012649;28;20566;-64
2021/03/11 09:07:00;;;;;;;5.38;2.38;;;10.60;99.90;;;;;;5012755;28;20045;-66
2021/03/11 09:09:37;;;;;;;7.55;2.38;;;10.60;99.90;;;;;;5013039;28;20061;-66
2021/03/11 09:12:12;;;;;;;3.58;1.95;;;10.70;99.90;;;;;;5012956;28;20080;-64
2021/03/11 09:14:44;;;;;;;3.90;1.70;;;10.60;99.90;;;;;;5012704;28;20034;-64
2021/03/11 09:17:17;;;;;;;3.55;1.67;;;10.60;99.90;;;;;;5011983;28;20087;-65
2021/03/11 09:19:46;;;;;;;3.95;2.05;;;10.60;99.90;;;;;;5012045;28;20459;-65
2021/03/11 09:22:36;;;;;;;5.72;2.67;;;10.60;99.90;;;;;;5012264;28;20471;-63
2021/03/11 09:25:13;;;;;;;5.50;2.33;;;10.50;99.90;;;;;;5021763;28;20034;-64
2021/03/11 09:27:56;;;;;;;3.47;1.83;;;10.50;99.90;;;;;;5032926;28;20482;-65
2021/03/11 09:30:36;;;;;;;4.20;2.10;;;10.40;99.90;;;;;;5032900;28;20377;-65
2021/03/11 09:33:13;;;;;;;7.40;1.88;;;10.40;99.90;;;;;;5032560;28;20486;-65
2021/03/11 09:35:40;;;;;;;4.20;1.85;;;10.40;99.90;;;;;;5032810;28;20065;-65
2021/03/11 09:38:08;;;;;;;4.53;1.88;;;10.40;99.90;;;;;;5032418;28;20067;-66
2021/03/11 09:40:48;;;;;;;7.28;2.15;;;10.30;99.90;;;;;;5032371;28;20402;-65
2021/03/11 09:43:18;;;;;;;4.20;2.05;;;10.30;99.90;;;;;;5032399;28;20041;-66
2021/03/11 09:45:57;;;;;;;3.95;2.13;;;10.30;99.90;;;;;;5032605;28;20037;-66
2021/03/11 09:48:32;;;;;;;3.13;1.80;;;10.20;99.90;;;;;;5032784;28;20065;-65
2021/03/11 09:51:07;;;;;;;4.57;2.20;;;10.10;99.90;;;;;;5031800;28;20450;-66
2021/03/11 09:54:00;;;;;;;4.63;2.22;;;10.00;99.90;;;;;;5032563;28;20033;-65
2021/03/11 09:56:43;;;;;;;3.97;2.03;;;9.90;99.90;;;;;;4993102;28;20033;-65
2021/03/11 09:59:13;;;;;;;3.80;2.03;;;9.80;99.90;;;;;;4993081;28;20174;-66
2021/03/11 10:01:49;;;;;;;6.50;2.85;;;9.80;99.90;;;;;;4992924;28;20045;-65
2021/03/11 10:04:28;;;;;;;4.18;2.45;;;9.70;99.90;;;;;;4993225;28;20113;-65
2021/03/11 10:07:03;;;;;;;4.60;2.15;;;9.60;99.90;;;;;;4992753;28;20030;-66
2021/03/11 10:09:45;;;;;;;4.82;2.40;;;9.70;99.90;;;;;;4975583;28;20030;-66
2021/03/11 10:12:12;;;;;;;8.43;3.10;;;9.60;99.90;;;;;;4992914;28;20066;-66
2021/03/11 10:14:38;;;;;;;5.28;2.65;;;9.70;99.90;;;;;;4992867;28;20399;-65
2021/03/11 10:17:06;;;;;;;7.00;2.95;;;9.70;99.90;;;;;;4975608;28;20030;-66
2021/03/11 10:19:35;;;;;;;5.97;2.30;;;9.70;99.90;;;;;;4992887;28;20033;-66
2021/03/11 10:22:16;;;;;;;5.70;1.92;;;9.80;99.90;;;;;;4992771;28;20492;-66
2021/03/11 10:24:51;;;;;;;7.95;2.55;;;9.80;99.90;;;;;;5004725;28;20383;-65
2021/03/11 10:27:24;;;;;;;6.32;2.97;;;9.80;99.90;;;;;;5032271;28;20045;-66
2021/03/11 10:30:37;;;;;;;5.50;2.22;;;9.80;99.90;;;;;;5032024;28;20029;-65
2021/03/11 10:33:05;;;;;;;3.80;1.90;;;9.90;99.90;;;;;;5028552;28;20049;-65
2021/03/11 10:35:44;;;;;;;3.75;1.58;;;9.90;99.90;;;;;;5014585;28;20037;-65
2021/03/11 10:38:21;;;;;;;5.53;2.17;;;10.00;99.90;;;;;;5016037;28;20478;-64
2021/03/11 10:40:48;;;;;;;6.15;1.90;;;10.00;99.90;;;;;;5031805;28;20030;-66
2021/03/11 10:43:23;;;;;;;3.45;1.80;;;10.10;99.90;;;;;;5032067;28;20034;-64
2021/03/11 10:45:49;;;;;;;4.22;2.28;;;10.10;99.90;;;;;;5031922;28;20044;-65
2021/03/11 10:48:16;;;;;;;1.75;1.20;;;10.20;99.90;;;;;;5031713;28;20445;-65
2021/03/11 10:50:52;;;;;;;3.70;1.85;;;10.30;99.90;;;;;;5031685;28;20486;-65
2021/03/11 10:53:20;;;;;;;2.50;1.65;;;10.30;99.90;;;;;;5014817;28;20482;-64
2021/03/11 10:55:47;;;;;;;2.78;1.50;;;10.30;99.90;;;;;;5017006;28;20030;-64
2021/03/11 10:58:24;;;;;;;4.57;2.13;;;10.40;99.90;;;;;;5012258;28;20033;-64
2021/03/11 11:00:50;;;;;;;6.93;1.98;;;10.40;99.90;;;;;;5012054;28;20426;-64
2021/03/11 11:03:20;;;;;;;2.60;1.50;;;10.50;99.90;;;;;;5016963;28;20041;-64
2021/03/11 11:05:47;;;;;;;3.08;1.60;;;10.60;99.90;;;;;;5015902;28;20041;-65
2021/03/11 11:08:13;;;;;;;2.80;1.80;;;10.70;99.90;;;;;;4998405;28;20038;-65
2021/03/11 11:10:39;;;;;;;5.00;2.03;;;10.70;99.90;;;;;;5015436;28;20037;-64
2021/03/11 11:13:05;;;;;;;3.50;1.70;;;10.70;99.90;;;;;;4997863;28;20153;-64
2021/03/11 11:15:31;;;;;;;5.43;1.88;;;10.70;99.90;;;;;;5015641;28;20137;-64
2021/03/11 11:18:01;;;;;;;4.05;1.77;;;10.70;99.90;;;;;;5015615;28;20108;-64
2021/03/11 11:20:29;;;;;;;2.88;1.67;;;10.80;99.90;;;;;;5015663;28;20026;-64
2021/03/11 11:22:55;;;;;;;4.35;2.10;;;10.80;99.90;;;;;;5015357;28;20633;-64
2021/03/11 11:25:21;;;;;;;5.50;1.95;;;10.70;99.90;;;;;;5026647;28;20367;-64
2021/03/11 11:27:46;;;;;;;3.20;1.80;;;10.70;99.90;;;;;;5035038;28;20037;-65
2021/03/11 11:30:14;;;;;;;3.67;1.42;;;10.70;99.90;;;;;;5033956;28;20044;-64
2021/03/11 11:32:39;;;;;;;3.47;1.55;;;10.80;99.90;;;;;;5034592;28;20091;-64
2021/03/11 11:35:07;;;;;;;2.22;1.40;;;10.90;99.90;;;;;;5001363;28;20050;-64
2021/03/11 11:37:33;;;;;;;2.38;1.40;;;11.00;99.90;;;;;;5015031;28;20042;-63
2021/03/11 11:39:59;;;;;;;5.68;1.75;;;11.00;99.90;;;;;;5014162;28;20053;-64
2021/03/11 11:42:25;;;;;;;2.78;1.42;;;11.00;99.90;;;;;;5014277;28;20037;-65
2021/03/11 11:44:52;;;;;;;1.85;1.27;;;11.20;99.90;;;;;;5014298;28;20022;-64
2021/03/11 11:47:18;;;;;;;2.33;1.20;;;11.20;99.90;;;;;;5015039;28;20026;-64
2021/03/11 11:49:44;;;;;;;2.60;1.40;;;11.30;99.90;;;;;;5015146;28;20408;-65
2021/03/11 11:52:11;;;;;;;2.90;1.60;;;11.30;99.90;;;;;;5014550;28;20431;-66
2021/03/11 11:54:37;;;;;;;3.05;1.52;;;11.50;99.90;;;;;;5014989;28;20109;-65
2021/03/11 11:57:04;;;;;;;3.08;1.30;;;11.70;99.90;;;;;;5014508;28;20096;-64
2021/03/11 11:59:30;;;;;;;5.45;1.70;;;11.70;99.90;;;;;;5014916;28;20438;-64
2021/03/11 12:01:56;;;;;;;1.85;1.25;;;11.70;99.90;;;;;;5014629;28;20025;-63
2021/03/11 12:04:22;;;;;;;2.47;1.35;;;11.70;99.90;;;;;;4997303;28;20493;-65
2021/03/11 12:06:49;;;;;;;4.18;1.50;;;11.70;99.90;;;;;;4997172;28;20041;-64
2021/03/11 12:09:16;;;;;;;5.85;2.22;;;11.70;99.90;;;;;;5013839;28;20045;-63
2021/03/11 12:11:42;;;;;;;3.53;1.45;;;11.70;99.90;;;;;;5014175;28;20041;-65
2021/03/11 12:14:08;;;;;;;1.80;0.95;;;11.70;99.90;;;;;;5013877;28;20030;-63
2021/03/11 12:16:34;;;;;;;3.80;1.40;;;11.80;99.90;;;;;;5014030;28;20367;-65
2021/03/11 12:19:00;;;;;;;2.47;1.15;;;11.80;99.90;;;;;;5013863;28;20045;-64
2021/03/11 12:21:26;;;;;;;2.45;1.35;;;11.90;99.90;;;;;;5014151;28;20026;-64
2021/03/11 12:23:52;;;;;;;8.15;1.38;;;11.90;99.90;;;;;;5013965;28;20041;-62
2021/03/11 12:26:20;;;;;;;3.05;1.30;;;12.00;99.90;;;;;;5013735;28;20029;-64
2021/03/11 12:28:49;;;;;;;1.88;1.17;;;12.10;99.90;;;;;;4996621;28;20124;-64
2021/03/11 12:31:16;;;;;;;2.00;1.10;;;12.20;99.90;;;;;;5013812;28;20514;-63
2021/03/11 12:33:42;;;;;;;3.78;1.13;;;12.30;99.90;;;;;;4996303;28;20072;-63
2021/03/11 12:36:09;;;;;;;2.60;1.30;;;12.40;99.90;;;;;;5013739;28;20058;-63
2021/03/11 12:38:36;;;;;;;3.97;1.08;;;12.40;99.90;;;;;;4996713;28;20080;-63
2021/03/11 12:41:03;;;;;;;4.15;1.30;;;12.60;99.90;;;;;;5013317;28;20033;-63
2021/03/11 12:43:29;;;;;;;1.65;1.05;;;12.60;99.90;;;;;;5013681;28;20041;-63
2021/03/11 12:45:56;;;;;;;4.50;1.23;;;12.60;99.90;;;;;;5013651;28;20034;-63
2021/03/11 12:48:22;;;;;;;4.55;1.00;;;12.70;99.90;;;;;;5013533;28;20160;-63
2021/03/11 12:50:49;;;;;;;2.13;1.00;;;12.80;99.90;;;;;;5013728;28;20124;-63
2021/03/11 12:53:19;;;;;;;3.50;1.20;;;12.70;99.90;;;;;;5013214;28;20034;-62
2021/03/11 12:55:45;;;;;;;5.37;1.83;;;12.80;99.90;;;;;;5028234;28;20501;-64
2021/03/11 12:58:11;;;;;;;2.80;1.20;;;13.00;99.90;;;;;;5020479;28;20074;-64
2021/03/11 13:00:38;;;;;;;2.10;0.88;;;13.00;99.90;;;;;;5013284;28;20030;-63
2021/03/11 13:03:05;;;;;;;3.95;0.90;;;13.00;99.90;;;;;;5013180;28;20026;-63